sensor_id;sensor_type;location;lat;lon;timestamp;pressure;altitude;pressure_sealevel;temperature
79053;BMP280;68451;49.510;6.026;2023-04-15T00:01:26;97131.97;;;7.89
79053;BMP280;68451;49.510;6.026;2023-04-15T00:03:52;97126.97;;;7.76
79053;BMP280;68451;49.510;6.026;2023-04-15T00:06:19;97131.16;;;7.89
79053;BMP280;68451;49.510;6.026;2023-04-15T00:08:46;97136.50;;;7.94
79053;BMP280;68451;49.510;6.026;2023-04-15T00:11:12;97088.63;;;7.60
79053;BMP280;68451;49.510;6.026;2023-04-15T00:13:38;97142.81;;;7.98
79053;BMP280;68451;49.510;6.026;2023-04-15T00:16:05;97138.50;;;7.92
79053;BMP280;68451;49.510;6.026;2023-04-15T00:18:30;97106.94;;;7.65
79053;BMP280;68451;49.510;6.026;2023-04-15T00:20:57;97099.03;;;7.60
79053;BMP280;68451;49.510;6.026;2023-04-15T00:23:23;97135.09;;;7.80
79053;BMP280;68451;49.510;6.026;2023-04-15T00:25:48;97136.03;;;7.85
79053;BMP280;68451;49.510;6.026;2023-04-15T00:28:15;97103.06;;;7.44
79053;BMP280;68451;49.510;6.026;2023-04-15T00:30:41;97111.88;;;7.55
79053;BMP280;68451;49.510;6.026;2023-04-15T00:33:07;97107.59;;;7.49
79053;BMP280;68451;49.510;6.026;2023-04-15T00:35:32;97098.22;;;7.36
79053;BMP280;68451;49.510;6.026;2023-04-15T00:37:58;97066.13;;;7.01
79053;BMP280;68451;49.510;6.026;2023-04-15T00:40:24;97105.13;;;7.12
79053;BMP280;68451;49.510;6.026;2023-04-15T00:42:50;97132.13;;;7.23
79053;BMP280;68451;49.510;6.026;2023-04-15T00:45:16;97104.53;;;7.10
79053;BMP280;68451;49.510;6.026;2023-04-15T00:47:42;97091.41;;;7.05
79053;BMP280;68451;49.510;6.026;2023-04-15T00:50:09;97088.53;;;7.13
79053;BMP280;68451;49.510;6.026;2023-04-15T00:52:35;97120.19;;;7.34
79053;BMP280;68451;49.510;6.026;2023-04-15T00:55:01;97093.63;;;7.20
79053;BMP280;68451;49.510;6.026;2023-04-15T00:57:28;96842.16;;;5.46
79053;BMP280;68451;49.510;6.026;2023-04-15T00:59:55;97100.19;;;7.23
79053;BMP280;68451;49.510;6.026;2023-04-15T01:02:21;97061.53;;;7.03
79053;BMP280;68451;49.510;6.026;2023-04-15T01:04:47;96995.13;;;6.54
79053;BMP280;68451;49.510;6.026;2023-04-15T01:07:13;97090.66;;;7.05
79053;BMP280;68451;49.510;6.026;2023-04-15T01:09:39;97121.38;;;7.19
79053;BMP280;68451;49.510;6.026;2023-04-15T01:12:06;97100.44;;;7.03
79053;BMP280;68451;49.510;6.026;2023-04-15T01:14:33;97121.25;;;7.14
79053;BMP280;68451;49.510;6.026;2023-04-15T01:16:58;97083.81;;;6.92
79053;BMP280;68451;49.510;6.026;2023-04-15T01:19:24;97092.59;;;7.09
79053;BMP280;68451;49.510;6.026;2023-04-15T01:21:50;97075.94;;;6.99
79053;BMP280;68451;49.510;6.026;2023-04-15T01:24:17;97101.19;;;7.22
79053;BMP280;68451;49.510;6.026;2023-04-15T01:26:44;97057.16;;;7.15
79053;BMP280;68451;49.510;6.026;2023-04-15T01:29:09;97097.56;;;7.52
79053;BMP280;68451;49.510;6.026;2023-04-15T01:31:35;97022.19;;;7.17
79053;BMP280;68451;49.510;6.026;2023-04-15T01:34:01;97065.13;;;7.32
79053;BMP280;68451;49.510;6.026;2023-04-15T01:36:27;97054.03;;;7.25
79053;BMP280;68451;49.510;6.026;2023-04-15T01:38:54;97083.91;;;7.45
79053;BMP280;68451;49.510;6.026;2023-04-15T01:41:26;97067.94;;;7.42
79053;BMP280;68451;49.510;6.026;2023-04-15T01:43:53;97057.69;;;7.47
79053;BMP280;68451;49.510;6.026;2023-04-15T01:46:19;97056.47;;;7.49
79053;BMP280;68451;49.510;6.026;2023-04-15T01:48:44;97039.25;;;7.37
79053;BMP280;68451;49.510;6.026;2023-04-15T01:51:10;97086.06;;;7.72
79053;BMP280;68451;49.510;6.026;2023-04-15T01:53:36;97083.34;;;7.67
79053;BMP280;68451;49.510;6.026;2023-04-15T01:56:01;97051.81;;;7.51
79053;BMP280;68451;49.510;6.026;2023-04-15T01:58:27;97085.03;;;7.61
79053;BMP280;68451;49.510;6.026;2023-04-15T02:00:52;97064.91;;;7.45
79053;BMP280;68451;49.510;6.026;2023-04-15T02:03:18;96920.25;;;6.46
79053;BMP280;68451;49.510;6.026;2023-04-15T02:05:43;97045.91;;;7.21
79053;BMP280;68451;49.510;6.026;2023-04-15T02:08:09;97089.97;;;7.51
79053;BMP280;68451;49.510;6.026;2023-04-15T02:10:35;97046.91;;;7.20
79053;BMP280;68451;49.510;6.026;2023-04-15T02:13:00;97069.28;;;7.33
79053;BMP280;68451;49.510;6.026;2023-04-15T02:15:26;97091.09;;;7.43
79053;BMP280;68451;49.510;6.026;2023-04-15T02:17:52;97094.50;;;7.44
79053;BMP280;68451;49.510;6.026;2023-04-15T02:20:19;97067.47;;;7.22
79053;BMP280;68451;49.510;6.026;2023-04-15T02:22:46;97047.63;;;6.97
79053;BMP280;68451;49.510;6.026;2023-04-15T02:25:13;97059.84;;;7.08
79053;BMP280;68451;49.510;6.026;2023-04-15T02:27:38;97075.38;;;7.27
79053;BMP280;68451;49.510;6.026;2023-04-15T02:30:04;97037.16;;;7.04
79053;BMP280;68451;49.510;6.026;2023-04-15T02:32:31;96958.16;;;6.47
79053;BMP280;68451;49.510;6.026;2023-04-15T02:35:04;97014.91;;;6.96
79053;BMP280;68451;49.510;6.026;2023-04-15T02:37:31;97103.53;;;7.53
79053;BMP280;68451;49.510;6.026;2023-04-15T02:39:57;97025.66;;;7.11
79053;BMP280;68451;49.510;6.026;2023-04-15T02:42:22;97071.44;;;7.36
79053;BMP280;68451;49.510;6.026;2023-04-15T02:44:51;97083.78;;;7.52
79053;BMP280;68451;49.510;6.026;2023-04-15T02:47:18;97089.09;;;7.57
79053;BMP280;68451;49.510;6.026;2023-04-15T02:49:43;97085.56;;;7.51
79053;BMP280;68451;49.510;6.026;2023-04-15T02:52:09;97086.13;;;7.42
79053;BMP280;68451;49.510;6.026;2023-04-15T02:54:34;97095.34;;;7.68
79053;BMP280;68451;49.510;6.026;2023-04-15T02:57:00;97081.97;;;7.52
79053;BMP280;68451;49.510;6.026;2023-04-15T02:59:26;97084.00;;;7.50
79053;BMP280;68451;49.510;6.026;2023-04-15T03:01:51;96985.03;;;6.64
79053;BMP280;68451;49.510;6.026;2023-04-15T03:04:17;96985.66;;;6.29
79053;BMP280;68451;49.510;6.026;2023-04-15T03:06:42;97092.19;;;6.94
79053;BMP280;68451;49.510;6.026;2023-04-15T03:09:08;97092.69;;;6.85
79053;BMP280;68451;49.510;6.026;2023-04-15T03:11:34;97082.47;;;6.71
79053;BMP280;68451;49.510;6.026;2023-04-15T03:14:01;97094.66;;;6.71
79053;BMP280;68451;49.510;6.026;2023-04-15T03:16:26;96985.16;;;6.03
79053;BMP280;68451;49.510;6.026;2023-04-15T03:18:52;97112.66;;;6.84
79053;BMP280;68451;49.510;6.026;2023-04-15T03:21:17;97093.78;;;6.77
79053;BMP280;68451;49.510;6.026;2023-04-15T03:23:44;97085.44;;;6.75
79053;BMP280;68451;49.510;6.026;2023-04-15T03:26:23;97077.59;;;6.63
79053;BMP280;68451;49.510;6.026;2023-04-15T03:28:50;97102.56;;;6.94
79053;BMP280;68451;49.510;6.026;2023-04-15T03:31:15;96912.75;;;5.71
79053;BMP280;68451;49.510;6.026;2023-04-15T03:33:41;97092.91;;;6.83
79053;BMP280;68451;49.510;6.026;2023-04-15T03:36:06;97093.78;;;6.77
79053;BMP280;68451;49.510;6.026;2023-04-15T03:38:32;96983.50;;;6.08
79053;BMP280;68451;49.510;6.026;2023-04-15T03:40:57;97051.81;;;6.50
79053;BMP280;68451;49.510;6.026;2023-04-15T03:43:23;97094.78;;;6.76
79053;BMP280;68451;49.510;6.026;2023-04-15T03:45:48;97116.13;;;6.78
79053;BMP280;68451;49.510;6.026;2023-04-15T03:48:14;97108.13;;;6.61
79053;BMP280;68451;49.510;6.026;2023-04-15T03:50:40;97053.81;;;6.12
79053;BMP280;68451;49.510;6.026;2023-04-15T03:53:05;97054.56;;;6.19
79053;BMP280;68451;49.510;6.026;2023-04-15T03:55:31;97033.03;;;6.18
79053;BMP280;68451;49.510;6.026;2023-04-15T03:57:56;97043.47;;;6.30
79053;BMP280;68451;49.510;6.026;2023-04-15T04:00:22;97068.88;;;6.40
79053;BMP280;68451;49.510;6.026;2023-04-15T04:02:47;97097.63;;;6.56
79053;BMP280;68451;49.510;6.026;2023-04-15T04:05:13;97047.78;;;6.18
79053;BMP280;68451;49.510;6.026;2023-04-15T04:07:38;96935.69;;;5.50
79053;BMP280;68451;49.510;6.026;2023-04-15T04:10:05;97093.81;;;6.41
79053;BMP280;68451;49.510;6.026;2023-04-15T04:12:30;97112.09;;;6.46
79053;BMP280;68451;49.510;6.026;2023-04-15T04:14:56;96892.38;;;4.95
79053;BMP280;68451;49.510;6.026;2023-04-15T04:17:21;97115.56;;;6.40
79053;BMP280;68451;49.510;6.026;2023-04-15T04:19:47;97112.75;;;6.41
79053;BMP280;68451;49.510;6.026;2023-04-15T04:22:12;97112.56;;;6.43
79053;BMP280;68451;49.510;6.026;2023-04-15T04:24:38;96972.66;;;5.57
79053;BMP280;68451;49.510;6.026;2023-04-15T04:27:04;97123.47;;;6.45
79053;BMP280;68451;49.510;6.026;2023-04-15T04:29:29;97077.81;;;6.25
79053;BMP280;68451;49.510;6.026;2023-04-15T04:31:55;97116.28;;;6.47
79053;BMP280;68451;49.510;6.026;2023-04-15T04:34:21;97021.81;;;5.88
79053;BMP280;68451;49.510;6.026;2023-04-15T04:36:46;97127.53;;;6.59
79053;BMP280;68451;49.510;6.026;2023-04-15T04:39:11;96868.75;;;4.92
79053;BMP280;68451;49.510;6.026;2023-04-15T04:41:39;97117.84;;;6.48
79053;BMP280;68451;49.510;6.026;2023-04-15T04:44:05;97127.88;;;6.44
79053;BMP280;68451;49.510;6.026;2023-04-15T04:46:31;97094.00;;;6.21
79053;BMP280;68451;49.510;6.026;2023-04-15T04:48:56;96984.31;;;5.48
79053;BMP280;68451;49.510;6.026;2023-04-15T04:51:22;97115.34;;;6.23
79053;BMP280;68451;49.510;6.026;2023-04-15T04:53:47;97077.06;;;6.00
79053;BMP280;68451;49.510;6.026;2023-04-15T04:56:13;96980.19;;;5.40
79053;BMP280;68451;49.510;6.026;2023-04-15T04:58:38;97088.09;;;6.14
79053;BMP280;68451;49.510;6.026;2023-04-15T05:03:50;97146.38;;;6.48
79053;BMP280;68451;49.510;6.026;2023-04-15T05:06:16;97103.81;;;6.19
79053;BMP280;68451;49.510;6.026;2023-04-15T05:08:41;97101.00;;;6.20
79053;BMP280;68451;49.510;6.026;2023-04-15T05:11:07;97119.03;;;6.34
79053;BMP280;68451;49.510;6.026;2023-04-15T05:13:33;97013.31;;;5.56
79053;BMP280;68451;49.510;6.026;2023-04-15T05:15:58;97108.13;;;6.07
79053;BMP280;68451;49.510;6.026;2023-04-15T05:18:24;97155.34;;;6.27
79053;BMP280;68451;49.510;6.026;2023-04-15T05:20:49;97119.63;;;6.11
79053;BMP280;68451;49.510;6.026;2023-04-15T05:23:15;97168.00;;;6.42
79053;BMP280;68451;49.510;6.026;2023-04-15T05:25:41;97160.91;;;6.30
79053;BMP280;68451;49.510;6.026;2023-04-15T05:28:07;97151.88;;;6.15
79053;BMP280;68451;49.510;6.026;2023-04-15T05:30:33;97098.63;;;5.94
79053;BMP280;68451;49.510;6.026;2023-04-15T05:32:58;97178.72;;;6.45
79053;BMP280;68451;49.510;6.026;2023-04-15T05:35:24;97120.28;;;6.06
79053;BMP280;68451;49.510;6.026;2023-04-15T05:37:49;97175.34;;;6.45
79053;BMP280;68451;49.510;6.026;2023-04-15T05:40:15;97192.03;;;6.49
79053;BMP280;68451;49.510;6.026;2023-04-15T05:42:40;97162.56;;;6.43
79053;BMP280;68451;49.510;6.026;2023-04-15T05:45:06;97152.63;;;6.22
79053;BMP280;68451;49.510;6.026;2023-04-15T05:47:34;97181.94;;;6.41
79053;BMP280;68451;49.510;6.026;2023-04-15T05:50:00;97129.94;;;6.17
79053;BMP280;68451;49.510;6.026;2023-04-15T05:52:26;97138.97;;;6.33
79053;BMP280;68451;49.510;6.026;2023-04-15T05:54:51;97066.00;;;5.93
79053;BMP280;68451;49.510;6.026;2023-04-15T05:57:17;97161.94;;;6.48
79053;BMP280;68451;49.510;6.026;2023-04-15T05:59:42;97163.09;;;6.52
79053;BMP280;68451;49.510;6.026;2023-04-15T06:02:09;97058.22;;;5.93
79053;BMP280;68451;49.510;6.026;2023-04-15T06:04:34;97194.97;;;6.77
79053;BMP280;68451;49.510;6.026;2023-04-15T06:07:01;97089.53;;;6.10
79053;BMP280;68451;49.510;6.026;2023-04-15T06:09:26;97219.91;;;6.96
79053;BMP280;68451;49.510;6.026;2023-04-15T06:11:53;97168.88;;;6.72
79053;BMP280;68451;49.510;6.026;2023-04-15T06:14:18;97207.28;;;7.00
79053;BMP280;68451;49.510;6.026;2023-04-15T06:16:44;97189.94;;;6.82
79053;BMP280;68451;49.510;6.026;2023-04-15T06:19:09;97199.56;;;6.93
79053;BMP280;68451;49.510;6.026;2023-04-15T06:21:36;97178.47;;;6.90
79053;BMP280;68451;49.510;6.026;2023-04-15T06:24:02;97226.38;;;7.24
79053;BMP280;68451;49.510;6.026;2023-04-15T06:26:28;97162.69;;;6.91
79053;BMP280;68451;49.510;6.026;2023-04-15T06:28:53;97163.59;;;6.97
79053;BMP280;68451;49.510;6.026;2023-04-15T06:31:20;96999.19;;;5.95
79053;BMP280;68451;49.510;6.026;2023-04-15T06:33:45;97215.75;;;7.43
79053;BMP280;68451;49.510;6.026;2023-04-15T06:36:11;97180.22;;;7.26
79053;BMP280;68451;49.510;6.026;2023-04-15T06:38:36;97189.75;;;7.32
79053;BMP280;68451;49.510;6.026;2023-04-15T06:41:02;97238.25;;;7.79
79053;BMP280;68451;49.510;6.026;2023-04-15T06:43:28;97195.00;;;7.55
79053;BMP280;68451;49.510;6.026;2023-04-15T06:45:54;97221.06;;;7.78
79053;BMP280;68451;49.510;6.026;2023-04-15T06:48:20;97199.59;;;7.71
79053;BMP280;68451;49.510;6.026;2023-04-15T06:50:46;97201.22;;;7.95
79053;BMP280;68451;49.510;6.026;2023-04-15T06:53:13;97244.56;;;8.25
79053;BMP280;68451;49.510;6.026;2023-04-15T06:55:38;97230.88;;;8.18
79053;BMP280;68451;49.510;6.026;2023-04-15T06:58:04;97221.72;;;8.15
79053;BMP280;68451;49.510;6.026;2023-04-15T07:00:30;97206.13;;;8.15
79053;BMP280;68451;49.510;6.026;2023-04-15T07:02:57;97226.97;;;8.38
79053;BMP280;68451;49.510;6.026;2023-04-15T07:05:23;97245.53;;;8.65
79053;BMP280;68451;49.510;6.026;2023-04-15T07:07:49;97225.53;;;8.66
79053;BMP280;68451;49.510;6.026;2023-04-15T07:10:15;97217.59;;;8.72
79053;BMP280;68451;49.510;6.026;2023-04-15T07:12:41;97151.44;;;8.45
79053;BMP280;68451;49.510;6.026;2023-04-15T07:15:07;97223.47;;;8.91
79053;BMP280;68451;49.510;6.026;2023-04-15T07:17:32;97241.91;;;9.01
79053;BMP280;68451;49.510;6.026;2023-04-15T07:19:58;97265.06;;;9.26
79053;BMP280;68451;49.510;6.026;2023-04-15T07:22:24;97242.88;;;9.23
79053;BMP280;68451;49.510;6.026;2023-04-15T07:24:50;97245.47;;;9.23
79053;BMP280;68451;49.510;6.026;2023-04-15T07:27:15;97270.69;;;9.46
79053;BMP280;68451;49.510;6.026;2023-04-15T07:29:42;97268.72;;;9.53
79053;BMP280;68451;49.510;6.026;2023-04-15T07:32:07;97239.31;;;9.41
79053;BMP280;68451;49.510;6.026;2023-04-15T07:34:34;97267.34;;;9.62
79053;BMP280;68451;49.510;6.026;2023-04-15T07:37:00;97258.16;;;9.60
79053;BMP280;68451;49.510;6.026;2023-04-15T07:39:25;97275.69;;;9.64
79053;BMP280;68451;49.510;6.026;2023-04-15T07:41:51;97274.47;;;9.67
79053;BMP280;68451;49.510;6.026;2023-04-15T07:44:17;97283.44;;;9.87
79053;BMP280;68451;49.510;6.026;2023-04-15T07:46:42;97245.00;;;9.66
79053;BMP280;68451;49.510;6.026;2023-04-15T07:49:08;97249.84;;;9.74
79053;BMP280;68451;49.510;6.026;2023-04-15T07:51:33;97268.75;;;9.81
79053;BMP280;68451;49.510;6.026;2023-04-15T07:53:59;97298.88;;;10.06
79053;BMP280;68451;49.510;6.026;2023-04-15T07:56:24;97285.53;;;10.02
79053;BMP280;68451;49.510;6.026;2023-04-15T07:58:50;97191.47;;;9.47
79053;BMP280;68451;49.510;6.026;2023-04-15T08:01:16;97308.25;;;10.18
79053;BMP280;68451;49.510;6.026;2023-04-15T08:03:41;97311.81;;;10.12
79053;BMP280;68451;49.510;6.026;2023-04-15T08:06:07;97298.78;;;10.01
79053;BMP280;68451;49.510;6.026;2023-04-15T08:08:32;97303.72;;;10.14
79053;BMP280;68451;49.510;6.026;2023-04-15T08:10:58;97308.06;;;10.08
79053;BMP280;68451;49.510;6.026;2023-04-15T08:13:24;97288.28;;;9.96
79053;BMP280;68451;49.510;6.026;2023-04-15T08:15:56;97286.66;;;10.35
79053;BMP280;68451;49.510;6.026;2023-04-15T08:18:37;97301.09;;;10.59
79053;BMP280;68451;49.510;6.026;2023-04-15T08:21:03;97303.16;;;10.90
79053;BMP280;68451;49.510;6.026;2023-04-15T08:23:28;97295.88;;;10.92
79053;BMP280;68451;49.510;6.026;2023-04-15T08:25:54;97182.75;;;10.31
79053;BMP280;68451;49.510;6.026;2023-04-15T08:28:19;97282.78;;;11.09
79053;BMP280;68451;49.510;6.026;2023-04-15T08:30:45;97294.06;;;11.31
79053;BMP280;68451;49.510;6.026;2023-04-15T08:33:11;97306.59;;;11.29
79053;BMP280;68451;49.510;6.026;2023-04-15T08:35:36;97301.47;;;11.39
79053;BMP280;68451;49.510;6.026;2023-04-15T08:38:02;97276.44;;;11.43
79053;BMP280;68451;49.510;6.026;2023-04-15T08:40:38;97308.41;;;11.50
79053;BMP280;68451;49.510;6.026;2023-04-15T08:43:08;97276.44;;;11.43
79053;BMP280;68451;49.510;6.026;2023-04-15T08:45:35;97300.88;;;11.54
79053;BMP280;68451;49.510;6.026;2023-04-15T08:48:04;97296.19;;;11.56
79053;BMP280;68451;49.510;6.026;2023-04-15T08:50:31;97326.13;;;11.87
79053;BMP280;68451;49.510;6.026;2023-04-15T08:52:58;97310.97;;;11.89
79053;BMP280;68451;49.510;6.026;2023-04-15T08:55:29;97325.31;;;12.35
79053;BMP280;68451;49.510;6.026;2023-04-15T08:57:58;97343.66;;;12.67
79053;BMP280;68451;49.510;6.026;2023-04-15T09:00:24;97330.59;;;12.40
79053;BMP280;68451;49.510;6.026;2023-04-15T09:02:51;97331.25;;;12.57
79053;BMP280;68451;49.510;6.026;2023-04-15T09:05:16;97335.34;;;12.75
79053;BMP280;68451;49.510;6.026;2023-04-15T09:07:42;97326.88;;;13.05
79053;BMP280;68451;49.510;6.026;2023-04-15T09:10:08;97347.38;;;13.50
79053;BMP280;68451;49.510;6.026;2023-04-15T09:12:35;97259.13;;;13.18
79053;BMP280;68451;49.510;6.026;2023-04-15T09:15:01;97305.81;;;13.94
79053;BMP280;68451;49.510;6.026;2023-04-15T09:17:27;97359.28;;;14.55
79053;BMP280;68451;49.510;6.026;2023-04-15T09:20:10;97321.97;;;14.78
79053;BMP280;68451;49.510;6.026;2023-04-15T09:22:38;97287.03;;;14.62
79053;BMP280;68451;49.510;6.026;2023-04-15T09:25:24;97337.72;;;15.08
79053;BMP280;68451;49.510;6.026;2023-04-15T09:27:52;97359.22;;;15.56
79053;BMP280;68451;49.510;6.026;2023-04-15T09:30:18;97343.41;;;15.46
79053;BMP280;68451;49.510;6.026;2023-04-15T09:32:48;97372.25;;;15.91
79053;BMP280;68451;49.510;6.026;2023-04-15T09:35:14;97358.13;;;16.21
79053;BMP280;68451;49.510;6.026;2023-04-15T09:37:40;97344.13;;;16.31
79053;BMP280;68451;49.510;6.026;2023-04-15T09:40:06;97356.88;;;16.52
79053;BMP280;68451;49.510;6.026;2023-04-15T09:42:33;97358.03;;;16.80
79053;BMP280;68451;49.510;6.026;2023-04-15T09:45:11;97348.09;;;17.01
79053;BMP280;68451;49.510;6.026;2023-04-15T09:47:37;97366.03;;;17.28
79053;BMP280;68451;49.510;6.026;2023-04-15T09:50:02;97351.97;;;17.14
79053;BMP280;68451;49.510;6.026;2023-04-15T09:52:29;97268.19;;;16.77
79053;BMP280;68451;49.510;6.026;2023-04-15T09:54:58;97376.38;;;17.77
79053;BMP280;68451;49.510;6.026;2023-04-15T09:57:24;97385.97;;;17.68
79053;BMP280;68451;49.510;6.026;2023-04-15T09:59:50;97381.34;;;17.83
79053;BMP280;68451;49.510;6.026;2023-04-15T10:02:17;97325.56;;;17.66
79053;BMP280;68451;49.510;6.026;2023-04-15T10:04:44;97340.63;;;17.66
79053;BMP280;68451;49.510;6.026;2023-04-15T10:07:10;97359.50;;;17.25
79053;BMP280;68451;49.510;6.026;2023-04-15T10:09:37;97347.94;;;17.21
79053;BMP280;68451;49.510;6.026;2023-04-15T10:12:04;97386.69;;;17.21
79053;BMP280;68451;49.510;6.026;2023-04-15T10:14:34;97397.69;;;16.99
79053;BMP280;68451;49.510;6.026;2023-04-15T10:17:01;97362.16;;;17.20
79053;BMP280;68451;49.510;6.026;2023-04-15T10:19:30;97378.00;;;16.91
79053;BMP280;68451;49.510;6.026;2023-04-15T10:21:58;97400.97;;;16.86
79053;BMP280;68451;49.510;6.026;2023-04-15T10:24:24;97342.78;;;16.77
79053;BMP280;68451;49.510;6.026;2023-04-15T10:26:51;97397.44;;;16.62
79053;BMP280;68451;49.510;6.026;2023-04-15T10:29:17;97283.22;;;15.98
79053;BMP280;68451;49.510;6.026;2023-04-15T10:31:43;97402.88;;;16.26
79053;BMP280;68451;49.510;6.026;2023-04-15T10:34:09;97398.09;;;15.79
79053;BMP280;68451;49.510;6.026;2023-04-15T10:36:35;97431.44;;;15.94
79053;BMP280;68451;49.510;6.026;2023-04-15T10:39:01;97279.91;;;14.83
79053;BMP280;68451;49.510;6.026;2023-04-15T10:41:27;97294.91;;;14.88
79053;BMP280;68451;49.510;6.026;2023-04-15T10:44:01;97389.22;;;15.09
79053;BMP280;68451;49.510;6.026;2023-04-15T10:46:43;97431.53;;;15.58
79053;BMP280;68451;49.510;6.026;2023-04-15T10:49:16;97406.31;;;15.07
79053;BMP280;68451;49.510;6.026;2023-04-15T10:51:58;97309.34;;;14.70
79053;BMP280;68451;49.510;6.026;2023-04-15T10:54:33;97426.50;;;15.77
79053;BMP280;68451;49.510;6.026;2023-04-15T10:57:22;97442.81;;;15.79
79053;BMP280;68451;49.510;6.026;2023-04-15T11:00:07;97349.56;;;14.65
79053;BMP280;68451;49.510;6.026;2023-04-15T11:02:47;97282.50;;;14.07
79053;BMP280;68451;49.510;6.026;2023-04-15T11:05:17;97405.00;;;15.04
79053;BMP280;68451;49.510;6.026;2023-04-15T11:07:48;97392.91;;;15.13
79053;BMP280;68451;49.510;6.026;2023-04-15T11:13:21;97210.06;;;14.21
79053;BMP280;68451;49.510;6.026;2023-04-15T11:15:48;97453.91;;;15.46
79053;BMP280;68451;49.510;6.026;2023-04-15T11:18:21;97451.53;;;15.29
79053;BMP280;68451;49.510;6.026;2023-04-15T11:20:57;97314.06;;;14.32
79053;BMP280;68451;49.510;6.026;2023-04-15T11:23:33;97332.16;;;14.29
79053;BMP280;68451;49.510;6.026;2023-04-15T11:26:00;97408.69;;;14.93
79053;BMP280;68451;49.510;6.026;2023-04-15T11:28:28;97345.28;;;14.29
79053;BMP280;68451;49.510;6.026;2023-04-15T11:30:55;97456.53;;;15.10
79053;BMP280;68451;49.510;6.026;2023-04-15T11:33:21;97408.16;;;14.96
79053;BMP280;68451;49.510;6.026;2023-04-15T11:35:47;97397.91;;;14.74
79053;BMP280;68451;49.510;6.026;2023-04-15T11:38:14;97471.53;;;15.10
79053;BMP280;68451;49.510;6.026;2023-04-15T11:40:40;97454.16;;;14.94
79053;BMP280;68451;49.510;6.026;2023-04-15T11:43:14;97464.41;;;14.85
79053;BMP280;68451;49.510;6.026;2023-04-15T11:45:58;97363.41;;;14.30
79053;BMP280;68451;49.510;6.026;2023-04-15T11:48:31;97430.50;;;14.84
79053;BMP280;68451;49.510;6.026;2023-04-15T11:50:59;97484.44;;;15.21
79053;BMP280;68451;49.510;6.026;2023-04-15T11:53:40;97461.28;;;15.03
79053;BMP280;68451;49.510;6.026;2023-04-15T11:56:08;97458.09;;;15.01
79053;BMP280;68451;49.510;6.026;2023-04-15T11:58:35;97474.97;;;15.26
79053;BMP280;68451;49.510;6.026;2023-04-15T12:01:04;97485.22;;;15.47
79053;BMP280;68451;49.510;6.026;2023-04-15T12:03:41;97492.56;;;15.45
79053;BMP280;68451;49.510;6.026;2023-04-15T12:06:21;97498.88;;;15.29
79053;BMP280;68451;49.510;6.026;2023-04-15T12:09:16;97499.69;;;15.30
79053;BMP280;68451;49.510;6.026;2023-04-15T12:11:44;97505.72;;;15.25
79053;BMP280;68451;49.510;6.026;2023-04-15T12:14:24;97476.25;;;15.03
79053;BMP280;68451;49.510;6.026;2023-04-15T12:16:52;97512.56;;;15.26
79053;BMP280;68451;49.510;6.026;2023-04-15T12:19:24;97508.34;;;15.30
79053;BMP280;68451;49.510;6.026;2023-04-15T12:21:51;97499.16;;;15.17
79053;BMP280;68451;49.510;6.026;2023-04-15T12:24:20;97462.81;;;14.84
79053;BMP280;68451;49.510;6.026;2023-04-15T12:26:49;97527.53;;;15.15
79053;BMP280;68451;49.510;6.026;2023-04-15T12:29:15;97512.75;;;14.84
79053;BMP280;68451;49.510;6.026;2023-04-15T12:31:52;97503.25;;;14.63
79053;BMP280;68451;49.510;6.026;2023-04-15T12:34:31;97542.19;;;14.86
79053;BMP280;68451;49.510;6.026;2023-04-15T12:36:58;97334.28;;;13.55
79053;BMP280;68451;49.510;6.026;2023-04-15T12:39:25;97563.50;;;14.95
79053;BMP280;68451;49.510;6.026;2023-04-15T12:41:52;97525.59;;;14.70
79053;BMP280;68451;49.510;6.026;2023-04-15T12:44:18;97560.88;;;14.90
79053;BMP280;68451;49.510;6.026;2023-04-15T12:46:44;97537.38;;;14.58
79053;BMP280;68451;49.510;6.026;2023-04-15T12:49:10;97563.41;;;14.69
79053;BMP280;68451;49.510;6.026;2023-04-15T12:51:36;97568.47;;;14.81
79053;BMP280;68451;49.510;6.026;2023-04-15T12:54:01;97567.16;;;14.89
79053;BMP280;68451;49.510;6.026;2023-04-15T12:56:27;97554.56;;;14.86
79053;BMP280;68451;49.510;6.026;2023-04-15T12:58:53;97524.59;;;14.82
79053;BMP280;68451;49.510;6.026;2023-04-15T13:01:18;97521.69;;;14.88
79053;BMP280;68451;49.510;6.026;2023-04-15T13:03:45;97557.78;;;15.28
79053;BMP280;68451;49.510;6.026;2023-04-15T13:06:10;97570.94;;;15.33
79053;BMP280;68451;49.510;6.026;2023-04-15T13:08:36;97578.03;;;15.33
79053;BMP280;68451;49.510;6.026;2023-04-15T13:11:02;97514.09;;;15.02
79053;BMP280;68451;49.510;6.026;2023-04-15T13:13:28;97563.84;;;15.29
79053;BMP280;68451;49.510;6.026;2023-04-15T13:15:56;97571.47;;;15.30
79053;BMP280;68451;49.510;6.026;2023-04-15T13:18:22;97569.88;;;15.24
79053;BMP280;68451;49.510;6.026;2023-04-15T13:20:48;97589.34;;;15.33
79053;BMP280;68451;49.510;6.026;2023-04-15T13:23:14;97542.19;;;14.91
79053;BMP280;68451;49.510;6.026;2023-04-15T13:25:39;97581.94;;;15.10
79053;BMP280;68451;49.510;6.026;2023-04-15T13:28:05;97585.88;;;15.07
79053;BMP280;68451;49.510;6.026;2023-04-15T13:30:31;97604.50;;;15.01
79053;BMP280;68451;49.510;6.026;2023-04-15T13:32:56;97615.31;;;14.99
79053;BMP280;68451;49.510;6.026;2023-04-15T13:35:22;97603.72;;;14.95
79053;BMP280;68451;49.510;6.026;2023-04-15T13:37:47;97612.69;;;15.09
79053;BMP280;68451;49.510;6.026;2023-04-15T13:40:13;97615.63;;;15.13
79053;BMP280;68451;49.510;6.026;2023-04-15T13:42:40;97555.28;;;14.71
79053;BMP280;68451;49.510;6.026;2023-04-15T13:45:07;97610.66;;;15.27
79053;BMP280;68451;49.510;6.026;2023-04-15T13:47:33;97611.72;;;15.41
79053;BMP280;68451;49.510;6.026;2023-04-15T13:49:58;97610.94;;;15.45
79053;BMP280;68451;49.510;6.026;2023-04-15T13:52:24;97614.63;;;15.39
79053;BMP280;68451;49.510;6.026;2023-04-15T13:54:49;97628.31;;;15.46
79053;BMP280;68451;49.510;6.026;2023-04-15T13:57:16;97584.31;;;15.11
79053;BMP280;68451;49.510;6.026;2023-04-15T13:59:41;97614.03;;;15.17
79053;BMP280;68451;49.510;6.026;2023-04-15T14:02:08;97557.66;;;14.77
79053;BMP280;68451;49.510;6.026;2023-04-15T14:04:34;97604.78;;;15.04
79053;BMP280;68451;49.510;6.026;2023-04-15T14:06:59;97634.28;;;15.16
79053;BMP280;68451;49.510;6.026;2023-04-15T14:09:25;97616.88;;;15.00
79053;BMP280;68451;49.510;6.026;2023-04-15T14:11:51;97649.81;;;15.23
79053;BMP280;68451;49.510;6.026;2023-04-15T14:14:16;97627.13;;;15.02
79053;BMP280;68451;49.510;6.026;2023-04-15T14:16:42;97598.94;;;14.77
79053;BMP280;68451;49.510;6.026;2023-04-15T14:19:07;97612.63;;;14.84
79053;BMP280;68451;49.510;6.026;2023-04-15T14:21:33;97517.25;;;14.26